Time;durP1;ratioP1;P1;durP2;ratioP2;P2;SDS_P1;SDS_P2;PMS_P1;PMS_P2;Temp;Humidity;BMP_temperature;BMP_pressure;BME280_temperature;BME280_humidity;BME280_pressure;Samples;Min_cycle;Max_cycle;Signal;HPM_P1;HPM_P2
2021/12/11 00:01:18;;;;;;;;;;;;;;;8.16;77.69;98245.22;5084978;28;19924;-76
2021/12/11 00:03:47;;;;;;;;;;;;;;;8.04;78.33;98237.25;5085314;28;19916;-75
2021/12/11 00:06:16;;;;;;;;;;;;;;;7.86;78.99;98249.09;5083957;28;19920;-76
2021/12/11 00:08:43;;;;;;;;;;;;;;;7.82;78.44;98248.28;5083980;28;19920;-75
2021/12/11 00:11:20;;;;;;;;;;;;;;;7.79;78.17;98251.88;5082662;28;19956;-76
2021/12/11 00:13:45;;;;;;;;;;;;;;;7.77;77.08;98237.59;5081907;28;19923;-75
2021/12/11 00:16:16;;;;;;;;;;;;;;;7.79;75.17;98218.63;5082946;28;20358;-74
2021/12/11 00:18:48;;;;;;;;;;;;;;;7.81;74.75;98215.47;5083694;28;19920;-74
2021/12/11 00:21:15;;;;;;;;;;;;;;;7.74;74.56;98212.69;5083760;28;19954;-76
2021/12/11 00:23:55;;;;;;;;;;;;;;;7.68;75.90;98217.03;5083591;28;19931;-77
2021/12/11 00:26:26;;;;;;;;;;;;;;;7.59;75.86;98217.38;5084258;28;19922;-77
2021/12/11 00:28:52;;;;;;;;;;;;;;;7.41;76.30;98206.28;5084371;28;19923;-74
2021/12/11 00:31:18;;;;;;;;;;;;;;;7.32;78.00;98201.09;5101894;28;19920;-75
2021/12/11 00:33:43;;;;;;;;;;;;;;;7.18;78.41;98206.56;5083135;28;20316;-76
2021/12/11 00:36:13;;;;;;;;;;;;;;;7.12;79.66;98197.03;5082112;28;19923;-76
2021/12/11 00:38:40;;;;;;;;;;;;;;;7.03;80.12;98182.78;5082357;28;20396;-76
2021/12/11 00:41:08;;;;;;;;;;;;;;;6.94;80.63;98180.38;5082229;28;19924;-75
2021/12/11 00:43:35;;;;;;;;;;;;;;;6.90;81.25;98168.50;5081317;28;19923;-75
2021/12/11 00:46:01;;;;;;;;;;;;;;;6.88;82.34;98168.09;5081046;28;19916;-76
2021/12/11 00:48:27;;;;;;;;;;;;;;;6.89;83.58;98166.91;5081187;28;19916;-74
2021/12/11 00:50:55;;;;;;;;;;;;;;;6.90;84.48;98159.41;5080708;28;20301;-74
2021/12/11 00:53:26;;;;;;;;;;;;;;;6.86;85.21;98151.09;5081507;28;19963;-74
2021/12/11 00:56:01;;;;;;;;;;;;;;;6.76;85.77;98130.50;5114612;28;19920;-75
2021/12/11 00:58:31;;;;;;;;;;;;;;;6.82;83.85;98117.91;5081458;28;20010;-76
2021/12/11 01:01:00;;;;;;;;;;;;;;;6.94;82.90;98118.75;5081633;28;19987;-75
2021/12/11 01:03:32;;;;;;;;;;;;;;;6.88;83.95;98170.06;5082816;28;19920;-75
2021/12/11 01:05:59;;;;;;;;;;;;;;;6.98;85.30;98191.47;5081298;28;20033;-80
2021/12/11 01:08:32;;;;;;;;;;;;;;;6.93;84.59;98178.00;5081378;28;19966;-75
2021/12/11 01:11:18;;;;;;;;;;;;;;;6.86;84.44;98166.88;5079691;28;19920;-76
2021/12/11 01:13:46;;;;;;;;;;;;;;;6.97;84.10;98157.47;5078921;28;19920;-76
2021/12/11 01:16:14;;;;;;;;;;;;;;;7.00;83.76;98153.16;5079530;28;20088;-76
2021/12/11 01:18:42;;;;;;;;;;;;;;;7.28;83.21;98149.69;5080217;28;19915;-76
2021/12/11 01:21:30;;;;;;;;;;;;;;;7.43;80.42;98145.00;5079903;28;19920;-75
2021/12/11 01:26:28;;;;;;;;;;;;;;;7.68;78.79;98126.47;5097346;28;20298;-76
2021/12/11 01:28:54;;;;;;;;;;;;;;;7.85;77.43;98122.94;5078995;28;19916;-75
2021/12/11 01:31:21;;;;;;;;;;;;;;;7.92;77.59;98129.66;5078922;28;19923;-76
2021/12/11 01:33:46;;;;;;;;;;;;;;;7.96;77.05;98119.38;5078755;28;19916;-76
2021/12/11 01:36:12;;;;;;;;;;;;;;;7.97;76.51;98107.09;5080595;28;19962;-75
2021/12/11 01:38:39;;;;;;;;;;;;;;;8.05;76.56;98103.16;5079600;28;20429;-76
2021/12/11 01:41:09;;;;;;;;;;;;;;;8.03;77.08;98097.22;5079600;28;19967;-76
2021/12/11 01:43:36;;;;;;;;;;;;;;;8.11;77.51;98101.56;5079338;28;19924;-76
2021/12/11 01:46:02;;;;;;;;;;;;;;;8.27;77.16;98101.94;5079131;28;19952;-76
2021/12/11 01:48:39;;;;;;;;;;;;;;;8.58;77.81;98099.56;5079368;28;19930;-75
2021/12/11 01:51:25;;;;;;;;;;;;;;;8.67;77.99;98099.91;5078999;28;20010;-75
2021/12/11 01:53:53;;;;;;;;;;;;;;;8.80;77.70;98092.75;5078859;28;19916;-75
2021/12/11 01:56:24;;;;;;;;;;;;;;;8.83;78.36;98089.16;5079583;28;20366;-74
2021/12/11 01:58:57;;;;;;;;;;;;;;;8.83;77.55;98086.38;5078653;28;20390;-74
2021/12/11 02:01:29;;;;;;;;;;;;;;;8.81;77.00;98074.91;5097648;28;19916;-75
2021/12/11 02:03:54;;;;;;;;;;;;;;;8.81;76.25;98076.91;5079436;28;19916;-77
2021/12/11 02:06:20;;;;;;;;;;;;;;;8.78;76.32;98075.69;5079290;28;20294;-77
2021/12/11 02:08:46;;;;;;;;;;;;;;;8.78;75.27;98080.47;5079038;28;20062;-76
2021/12/11 02:11:19;;;;;;;;;;;;;;;8.65;74.96;98069.03;5096194;28;19920;-76
2021/12/11 02:13:52;;;;;;;;;;;;;;;8.71;75.92;98072.97;5096911;28;19939;-76
2021/12/11 02:16:22;;;;;;;;;;;;;;;8.73;76.36;98078.09;5077760;28;19916;-73
2021/12/11 02:18:50;;;;;;;;;;;;;;;8.66;77.38;98068.63;5080827;28;19983;-75
2021/12/11 02:21:18;;;;;;;;;;;;;;;8.64;77.80;98062.69;5096729;28;20491;-73
2021/12/11 02:23:50;;;;;;;;;;;;;;;8.64;78.47;98067.47;5112450;28;19916;-74
2021/12/11 02:26:16;;;;;;;;;;;;;;;8.60;78.57;98063.91;5078898;28;19916;-76
2021/12/11 02:28:41;;;;;;;;;;;;;;;8.63;77.81;98054.78;5080019;28;19973;-77
2021/12/11 02:31:19;;;;;;;;;;;;;;;8.63;77.49;98054.78;5115434;28;20024;-76
2021/12/11 02:33:49;;;;;;;;;;;;;;;8.70;78.29;98053.97;5114652;28;20010;-75
2021/12/11 02:36:22;;;;;;;;;;;;;;;8.70;77.66;98054.75;5099150;28;20006;-77
2021/12/11 02:38:53;;;;;;;;;;;;;;;8.68;78.30;98048.81;5081307;28;19946;-76
2021/12/11 02:41:28;;;;;;;;;;;;;;;8.74;78.33;98051.97;5101134;28;19923;-76
2021/12/11 02:43:59;;;;;;;;;;;;;;;8.77;78.29;98053.94;5081812;28;19916;-74
2021/12/11 02:46:46;;;;;;;;;;;;;;;8.72;79.51;98052.38;5079030;28;19916;-76
2021/12/11 02:49:31;;;;;;;;;;;;;;;8.63;79.86;98040.94;5078463;28;19920;-75
2021/12/11 02:52:03;;;;;;;;;;;;;;;8.56;80.20;98032.63;5095741;28;19963;-74
2021/12/11 02:54:32;;;;;;;;;;;;;;;8.49;78.30;98021.56;5112411;28;19916;-76
2021/12/11 02:57:01;;;;;;;;;;;;;;;8.37;77.72;98009.72;5078019;28;19916;-77
2021/12/11 02:59:29;;;;;;;;;;;;;;;8.38;77.92;98005.78;5078398;28;19924;-76
2021/12/11 03:02:05;;;;;;;;;;;;;;;8.34;77.84;97993.88;5077869;28;19923;-77
2021/12/11 03:04:36;;;;;;;;;;;;;;;8.25;78.61;97990.72;5077741;28;20357;-77
2021/12/11 03:07:06;;;;;;;;;;;;;;;8.19;78.81;97986.78;5095595;28;19966;-77
2021/12/11 03:09:33;;;;;;;;;;;;;;;8.16;79.33;97982.06;5077481;28;19970;-75
2021/12/11 03:11:59;;;;;;;;;;;;;;;8.22;80.07;97974.91;5078370;28;20034;-73
2021/12/11 03:14:26;;;;;;;;;;;;;;;8.29;78.35;97952.72;5077364;28;19951;-76
2021/12/11 03:16:51;;;;;;;;;;;;;;;8.33;76.93;97959.03;5077691;28;20386;-75
2021/12/11 03:19:19;;;;;;;;;;;;;;;8.40;76.28;97959.03;5078207;28;19962;-74
2021/12/11 03:21:45;;;;;;;;;;;;;;;8.49;76.20;97946.75;5077613;28;19952;-76
2021/12/11 03:24:11;;;;;;;;;;;;;;;8.49;76.42;97949.50;5078242;28;19920;-77
2021/12/11 03:26:38;;;;;;;;;;;;;;;8.48;77.26;97984.75;5077497;28;19916;-77
2021/12/11 03:29:04;;;;;;;;;;;;;;;8.53;79.03;98027.91;5095732;28;20377;-75
2021/12/11 03:31:30;;;;;;;;;;;;;;;8.12;81.87;98036.69;5079593;28;19954;-75
2021/12/11 03:33:56;;;;;;;;;;;;;;;7.73;85.34;98015.38;5079835;28;20309;-74
2021/12/11 03:36:23;;;;;;;;;;;;;;;7.51;86.33;98003.50;5083375;28;19917;-76
2021/12/11 03:38:52;;;;;;;;;;;;;;;7.44;87.19;97977.81;5096838;28;19980;-73
2021/12/11 03:41:18;;;;;;;;;;;;;;;7.49;87.33;97972.66;5078353;28;19923;-76
2021/12/11 03:43:43;;;;;;;;;;;;;;;7.43;88.09;97974.25;5078330;28;20015;-74
2021/12/11 03:46:09;;;;;;;;;;;;;;;7.41;89.49;97959.25;5077625;28;19959;-76
2021/12/11 03:48:44;;;;;;;;;;;;;;;7.42;90.45;97966.34;5095404;28;19942;-76
2021/12/11 03:51:11;;;;;;;;;;;;;;;7.44;91.78;97963.97;5096761;28;19969;-75
2021/12/11 03:53:36;;;;;;;;;;;;;;;7.35;92.58;97965.16;5079406;28;19916;-76
2021/12/11 03:56:04;;;;;;;;;;;;;;;7.45;91.79;97976.59;5078636;28;19920;-75
2021/12/11 03:58:30;;;;;;;;;;;;;;;7.44;91.48;97969.50;5079312;28;20244;-75
2021/12/11 04:01:02;;;;;;;;;;;;;;;7.44;91.05;97969.50;5078351;28;19922;-75
2021/12/11 04:03:29;;;;;;;;;;;;;;;7.48;90.80;97973.06;5079188;28;19938;-76
2021/12/11 04:05:55;;;;;;;;;;;;;;;7.52;90.57;97974.66;5079333;28;19927;-76
2021/12/11 04:08:23;;;;;;;;;;;;;;;7.58;89.63;97975.03;5079125;28;19915;-73
2021/12/11 04:10:49;;;;;;;;;;;;;;;7.55;89.82;97975.81;5080023;28;19923;-76
2021/12/11 04:13:14;;;;;;;;;;;;;;;7.54;90.13;97969.50;5078511;28;19916;-75
2021/12/11 04:15:41;;;;;;;;;;;;;;;7.67;89.41;97974.63;5112161;28;19916;-74
2021/12/11 04:18:07;;;;;;;;;;;;;;;7.69;89.75;97980.56;5079226;28;19928;-77
2021/12/11 04:20:36;;;;;;;;;;;;;;;7.72;88.98;98005.44;5079466;28;20294;-77
2021/12/11 04:23:02;;;;;;;;;;;;;;;7.85;88.44;98014.94;5080564;28;19916;-77
2021/12/11 04:25:27;;;;;;;;;;;;;;;7.78;89.07;97978.19;5081717;28;19923;-80
2021/12/11 04:27:54;;;;;;;;;;;;;;;7.64;87.98;97987.28;5083624;28;19917;-75
2021/12/11 04:30:20;;;;;;;;;;;;;;;7.55;87.27;97981.34;5118271;28;19916;-77
2021/12/11 04:32:47;;;;;;;;;;;;;;;7.49;88.06;97985.72;5084128;28;19916;-78
2021/12/11 04:35:14;;;;;;;;;;;;;;;7.43;89.24;97979.78;5083407;28;20278;-76
2021/12/11 04:37:40;;;;;;;;;;;;;;;7.43;90.22;97976.22;5082917;28;19920;-73
2021/12/11 04:40:09;;;;;;;;;;;;;;;7.53;91.67;97986.50;5083412;28;19915;-74
2021/12/11 04:42:52;;;;;;;;;;;;;;;7.61;92.51;98001.91;5101397;28;19916;-76
2021/12/11 04:45:29;;;;;;;;;;;;;;;7.67;92.57;98008.66;5082583;28;19916;-76
2021/12/11 04:48:05;;;;;;;;;;;;;;;7.61;92.77;98001.91;5082467;28;19916;-74
2021/12/11 04:50:43;;;;;;;;;;;;;;;7.63;90.66;98004.28;5084062;28;19916;-76
2021/12/11 04:53:26;;;;;;;;;;;;;;;7.64;89.08;97994.81;5084090;28;19916;-77
2021/12/11 04:56:18;;;;;;;;;;;;;;;7.51;88.50;97995.22;5101320;28;20404;-77
2021/12/11 04:58:51;;;;;;;;;;;;;;;7.57;87.37;97985.31;5101044;28;19916;-76
2021/12/11 05:01:40;;;;;;;;;;;;;;;7.52;86.30;97998.75;5102409;28;19917;-76
2021/12/11 05:07:57;;;;;;;;;;;;;;;7.51;87.83;98016.53;5025670;28;19921;-81
2021/12/11 05:10:31;;;;;;;;;;;;;;;7.42;88.42;98016.94;5077779;28;19921;-78
2021/12/11 05:12:57;;;;;;;;;;;;;;;7.31;90.10;98016.94;5083057;28;19980;-76
2021/12/11 05:15:28;;;;;;;;;;;;;;;7.30;91.28;98014.56;5083365;28;19966;-77
2021/12/11 05:17:55;;;;;;;;;;;;;;;7.49;92.29;98014.16;5065303;28;19916;-77
2021/12/11 05:20:23;;;;;;;;;;;;;;;7.43;91.61;98017.72;5066715;28;20477;-76
2021/12/11 05:22:48;;;;;;;;;;;;;;;7.38;92.57;98020.88;5066747;28;19916;-77
2021/12/11 05:25:14;;;;;;;;;;;;;;;7.39;91.31;98016.94;5068052;28;20349;-76
2021/12/11 05:27:43;;;;;;;;;;;;;;;7.48;91.15;98031.16;5066443;28;19917;-76
2021/12/11 05:30:14;;;;;;;;;;;;;;;7.37;90.29;98036.69;5065718;28;20008;-78
2021/12/11 05:32:39;;;;;;;;;;;;;;;7.28;90.23;98041.81;5063305;28;19954;-75
2021/12/11 05:35:06;;;;;;;;;;;;;;;7.23;89.91;98047.72;5061465;28;19917;-76
2021/12/11 05:37:32;;;;;;;;;;;;;;;7.25;89.68;98046.16;5061190;28;19966;-76
2021/12/11 05:39:57;;;;;;;;;;;;;;;7.16;89.61;98050.50;5058502;28;20007;-74
2021/12/11 05:42:23;;;;;;;;;;;;;;;7.11;91.22;98051.66;5075550;28;19939;-76
2021/12/11 05:44:48;;;;;;;;;;;;;;;7.02;93.13;98051.22;5059031;28;19923;-75
2021/12/11 05:47:14;;;;;;;;;;;;;;;6.90;93.59;98057.91;5058870;28;19916;-75
2021/12/11 05:49:41;;;;;;;;;;;;;;;6.78;94.97;98047.22;5058721;28;19920;-74
2021/12/11 05:52:08;;;;;;;;;;;;;;;6.75;94.92;98045.22;5077046;28;19921;-76
2021/12/11 05:54:34;;;;;;;;;;;;;;;6.62;95.46;98042.03;5059109;28;19943;-76
2021/12/11 05:57:03;;;;;;;;;;;;;;;6.63;96.73;98054.66;5092426;28;19975;-76
2021/12/11 05:59:29;;;;;;;;;;;;;;;6.60;95.97;98063.72;5058509;28;19966;-74
2021/12/11 06:01:59;;;;;;;;;;;;;;;6.56;95.27;98063.72;5058656;28;19921;-73
2021/12/11 06:04:28;;;;;;;;;;;;;;;6.49;95.64;98073.91;5095220;28;19916;-76
2021/12/11 06:06:54;;;;;;;;;;;;;;;6.43;95.91;98081.00;5074451;28;20358;-76
2021/12/11 06:09:21;;;;;;;;;;;;;;;6.40;95.44;98071.53;5078941;28;19923;-73
2021/12/11 06:11:48;;;;;;;;;;;;;;;6.37;95.54;98071.50;5080821;28;19916;-76
2021/12/11 06:14:16;;;;;;;;;;;;;;;6.25;96.26;98067.09;5080513;28;19924;-75
2021/12/11 06:16:42;;;;;;;;;;;;;;;6.07;97.19;98066.94;5079606;28;19920;-77
2021/12/11 06:19:08;;;;;;;;;;;;;;;6.06;97.92;98070.09;5079623;28;19923;-74
2021/12/11 06:21:34;;;;;;;;;;;;;;;5.95;98.45;98081.06;5114344;28;19920;-76
2021/12/11 06:24:01;;;;;;;;;;;;;;;6.04;98.56;98074.06;5079433;28;19923;-74
2021/12/11 06:26:26;;;;;;;;;;;;;;;6.02;98.79;98078.38;5098624;28;19916;-74
2021/12/11 06:28:52;;;;;;;;;;;;;;;5.98;99.07;98075.59;5080793;28;19920;-75
2021/12/11 06:31:19;;;;;;;;;;;;;;;6.02;99.39;98081.16;5081247;28;19916;-78
2021/12/11 06:33:45;;;;;;;;;;;;;;;5.99;100.00;98081.91;5081455;28;19993;-78
2021/12/11 06:36:11;;;;;;;;;;;;;;;6.01;99.78;98091.38;5098170;28;19965;-80
2021/12/11 06:38:37;;;;;;;;;;;;;;;6.12;100.00;98085.91;5080035;28;19965;-76
2021/12/11 06:41:11;;;;;;;;;;;;;;;6.08;99.70;98090.66;5080022;28;19916;-74
2021/12/11 06:43:39;;;;;;;;;;;;;;;6.08;100.00;98095.38;5079456;28;20010;-76
2021/12/11 06:46:05;;;;;;;;;;;;;;;6.21;99.67;98093.88;5079498;28;20315;-79
2021/12/11 06:48:31;;;;;;;;;;;;;;;6.22;99.73;98092.69;5080610;28;19974;-79
2021/12/11 06:50:57;;;;;;;;;;;;;;;6.18;98.93;98092.69;5081456;28;19916;-76
2021/12/11 06:53:33;;;;;;;;;;;;;;;6.13;99.35;98106.84;5082228;28;19916;-77
2021/12/11 06:55:59;;;;;;;;;;;;;;;6.23;99.64;98119.94;5080780;28;19930;-77
2021/12/11 06:58:26;;;;;;;;;;;;;;;6.09;99.60;98119.84;5082680;28;20049;-80
2021/12/11 07:00:52;;;;;;;;;;;;;;;6.11;99.73;98111.94;5080875;28;19971;-79
2021/12/11 07:03:17;;;;;;;;;;;;;;;6.04;100.00;98106.38;5081245;28;19916;-79
2021/12/11 07:05:43;;;;;;;;;;;;;;;5.92;99.86;98126.03;5077584;28;19928;-75
2021/12/11 07:08:12;;;;;;;;;;;;;;;5.70;99.56;98119.47;5078268;28;20220;-78
2021/12/11 07:10:39;;;;;;;;;;;;;;;5.55;99.55;98115.00;5094886;28;20367;-77
2021/12/11 07:13:04;;;;;;;;;;;;;;;5.40;100.00;98105.78;5061805;28;19916;-78
2021/12/11 07:15:30;;;;;;;;;;;;;;;5.35;100.00;98129.00;5080423;28;19924;-78
2021/12/11 07:17:55;;;;;;;;;;;;;;;5.34;100.00;98134.88;5079122;28;20395;-77
2021/12/11 07:20:21;;;;;;;;;;;;;;;5.35;100.00;98130.97;5061803;28;19991;-76
2021/12/11 07:22:46;;;;;;;;;;;;;;;5.49;100.00;98128.34;5060741;28;20282;-75
2021/12/11 07:25:18;;;;;;;;;;;;;;;5.61;100.00;98128.06;5062529;28;19920;-77
2021/12/11 07:27:45;;;;;;;;;;;;;;;5.56;100.00;98144.97;5062269;28;20274;-79
2021/12/11 07:30:10;;;;;;;;;;;;;;;5.54;100.00;98150.09;5080895;28;19917;-78
2021/12/11 07:32:44;;;;;;;;;;;;;;;5.62;100.00;98135.16;5062741;28;19940;-76
2021/12/11 07:35:10;;;;;;;;;;;;;;;5.59;100.00;98143.41;5061247;28;19999;-78
2021/12/11 07:37:35;;;;;;;;;;;;;;;5.66;100.00;98138.75;5080388;28;19951;-79
2021/12/11 07:40:01;;;;;;;;;;;;;;;5.70;100.00;98149.81;5062006;28;19923;-76
2021/12/11 07:42:27;;;;;;;;;;;;;;;5.75;100.00;98153.06;5062728;28;20074;-77
2021/12/11 07:44:54;;;;;;;;;;;;;;;5.89;99.92;98148.81;5062092;28;19938;-76
2021/12/11 07:47:19;;;;;;;;;;;;;;;5.88;99.67;98147.25;5061531;28;19916;-76
2021/12/11 07:49:45;;;;;;;;;;;;;;;5.91;100.00;98152.81;5061777;28;19923;-75
2021/12/11 07:52:13;;;;;;;;;;;;;;;6.00;100.00;98152.50;5095750;28;19939;-76
2021/12/11 07:54:38;;;;;;;;;;;;;;;6.07;100.00;98155.31;5061388;28;19964;-76
2021/12/11 07:57:04;;;;;;;;;;;;;;;6.09;100.00;98169.53;5062639;28;19923;-74
2021/12/11 07:59:29;;;;;;;;;;;;;;;6.23;100.00;98157.78;5061955;28;19971;-75
2021/12/11 08:01:55;;;;;;;;;;;;;;;6.18;100.00;98150.69;5066849;28;19917;-77
2021/12/11 08:04:28;;;;;;;;;;;;;;;6.09;100.00;98161.25;5062481;28;19921;-81
2021/12/11 08:06:54;;;;;;;;;;;;;;;6.12;100.00;98182.56;5078920;28;19921;-74
2021/12/11 08:09:20;;;;;;;;;;;;;;;6.13;100.00;98195.22;5095145;28;20414;-76
2021/12/11 08:11:47;;;;;;;;;;;;;;;6.21;100.00;98194.09;5079583;28;19960;-75
2021/12/11 08:14:12;;;;;;;;;;;;;;;6.19;100.00;98201.19;5062298;28;19920;-76
2021/12/11 08:16:49;;;;;;;;;;;;;;;6.13;100.00;98197.97;5080123;28;20263;-76
2021/12/11 08:19:21;;;;;;;;;;;;;;;6.22;100.00;98201.19;5061026;28;19916;-82
2021/12/11 08:21:47;;;;;;;;;;;;;;;6.23;99.38;98197.28;5062375;28;19916;-79
2021/12/11 08:24:12;;;;;;;;;;;;;;;6.17;99.30;98204.31;5079718;28;19916;-77
2021/12/11 08:26:40;;;;;;;;;;;;;;;6.14;99.43;98210.59;5094858;28;19917;-77
2021/12/11 08:29:06;;;;;;;;;;;;;;;6.18;99.82;98233.53;5062137;28;19916;-75
2021/12/11 08:31:32;;;;;;;;;;;;;;;6.21;99.97;98227.22;5062068;28;20262;-77
2021/12/11 08:33:58;;;;;;;;;;;;;;;6.18;99.97;98230.75;5061175;28;19999;-76
2021/12/11 08:36:24;;;;;;;;;;;;;;;6.30;99.46;98236.00;5061757;28;20322;-79
2021/12/11 08:38:50;;;;;;;;;;;;;;;6.37;98.20;98251.03;5061781;28;19916;-77
2021/12/11 08:41:17;;;;;;;;;;;;;;;6.29;97.17;98244.66;5062479;28;19916;-77
2021/12/11 08:43:46;;;;;;;;;;;;;;;6.18;97.63;98241.81;5061407;28;20358;-80
2021/12/11 08:46:14;;;;;;;;;;;;;;;6.19;98.07;98254.44;5061671;28;19917;-81
2021/12/11 08:48:44;;;;;;;;;;;;;;;6.16;98.28;98257.94;5080345;28;19975;-80
2021/12/11 08:51:13;;;;;;;;;;;;;;;6.10;98.03;98270.50;5061763;28;19917;-77
2021/12/11 08:53:38;;;;;;;;;;;;;;;6.01;96.80;98267.25;5059467;28;19917;-79
2021/12/11 08:56:05;;;;;;;;;;;;;;;5.83;96.38;98266.25;5060764;28;19916;-79
2021/12/11 08:58:30;;;;;;;;;;;;;;;5.72;96.66;98266.94;5062401;28;19916;-76
2021/12/11 09:00:56;;;;;;;;;;;;;;;5.77;97.40;98266.59;5094267;28;20466;-77
2021/12/11 09:03:25;;;;;;;;;;;;;;;5.65;97.17;98255.81;5094327;28;19924;-79
2021/12/11 09:06:00;;;;;;;;;;;;;;;5.60;96.61;98253.41;5097763;28;19920;-78
2021/12/11 09:08:35;;;;;;;;;;;;;;;5.67;96.81;98252.69;5115747;28;19983;-77
2021/12/11 09:11:05;;;;;;;;;;;;;;;5.66;97.45;98262.13;5083179;28;19916;-78
2021/12/11 09:13:36;;;;;;;;;;;;;;;5.70;97.14;98269.28;5082291;28;19916;-77
2021/12/11 09:16:05;;;;;;;;;;;;;;;5.68;97.37;98277.13;5082680;28;19920;-76
2021/12/11 09:18:37;;;;;;;;;;;;;;;5.68;97.79;98281.84;5114807;28;19939;-76
2021/12/11 09:21:05;;;;;;;;;;;;;;;5.69;97.74;98277.91;5081325;28;20003;-75
2021/12/11 09:23:41;;;;;;;;;;;;;;;5.67;97.47;98272.78;5098429;28;19916;-79
2021/12/11 09:26:26;;;;;;;;;;;;;;;5.65;97.39;98266.06;5082225;28;19927;-77
2021/12/11 09:28:56;;;;;;;;;;;;;;;5.71;98.11;98267.31;5080976;28;20386;-76
2021/12/11 09:31:32;;;;;;;;;;;;;;;5.75;98.24;98277.22;5081384;28;20378;-74
2021/12/11 09:34:09;;;;;;;;;;;;;;;5.82;97.94;98282.03;5081916;28;19916;-74
2021/12/11 09:36:38;;;;;;;;;;;;;;;5.81;97.94;98290.69;5080628;28;19922;-74
2021/12/11 09:39:21;;;;;;;;;;;;;;;5.84;98.46;98300.97;5081194;28;20367;-76
2021/12/11 09:41:46;;;;;;;;;;;;;;;5.88;98.64;98299.03;5099367;28;19916;-77
2021/12/11 09:44:17;;;;;;;;;;;;;;;5.84;98.26;98295.44;5114979;28;19982;-74
2021/12/11 09:46:45;;;;;;;;;;;;;;;5.88;98.27;98302.59;5080831;28;19938;-74
2021/12/11 09:49:12;;;;;;;;;;;;;;;5.92;99.29;98294.41;5080832;28;19924;-76
2021/12/11 09:51:41;;;;;;;;;;;;;;;6.03;99.82;98314.63;5080507;28;19916;-74
2021/12/11 09:54:16;;;;;;;;;;;;;;;6.19;98.60;98309.66;5080820;28;20334;-75
2021/12/11 10:08:28;;;;;;;4.65;4.25;;;;;;;6.33;97.80;98316.50;5075748;27;1596161;-74
2021/12/11 10:13:23;;;;;;;6.38;5.25;;;;;;;6.37;97.65;98298.00;5066117;28;20051;-84
2021/12/11 10:15:49;;;;;;;6.85;6.15;;;;;;;6.37;97.04;98270.38;5046972;28;20121;-84
2021/12/11 10:18:21;;;;;;;4.50;4.10;;;;;;;6.53;95.61;98277.22;5052032;28;20009;-86
2021/12/11 10:21:13;;;;;;;7.35;3.80;;;;;;;6.64;94.43;98293.88;5053744;28;20372;-85
2021/12/11 10:23:41;;;;;;;8.52;5.57;;;;;;;6.51;95.03;98259.44;5068347;28;20031;-84
2021/12/11 10:26:10;;;;;;;10.30;9.27;;;;;;;6.60;95.22;98279.25;5047248;28;20089;-83
2021/12/11 10:28:39;;;;;;;5.82;5.32;;;;;;;6.57;95.35;98266.22;5046493;28;20500;-83
2021/12/11 10:31:26;;;;;;;5.50;5.00;;;;;;;6.59;95.28;98257.53;5046982;28;20030;-82
2021/12/11 10:33:52;;;;;;;17.25;12.23;;;;;;;6.75;95.00;98293.97;5030528;28;20025;-81
2021/12/11 10:36:26;;;;;;;7.13;6.45;;;;;;;6.88;95.75;98300.00;5046713;28;20063;-83
2021/12/11 10:38:53;;;;;;;5.70;4.53;;;;;;;6.67;95.41;98257.22;5050242;28;20081;-86
2021/12/11 10:41:19;;;;;;;8.27;6.50;;;;;;;7.04;96.05;98297.75;5035750;28;20037;-84
2021/12/11 10:43:53;;;;;;;3.90;3.35;;;;;;;7.27;94.53;98306.56;5066081;28;20021;-85
2021/12/11 10:46:20;;;;;;;;;;;;;;;7.28;94.45;98310.94;5047003;28;20033;-83
2021/12/11 10:48:46;;;;;;;6.70;4.70;;;;;;;7.25;94.24;98295.13;5043988;28;19909;-82
2021/12/11 10:51:28;;;;;;;7.20;6.20;;;;;;;7.34;94.00;98303.84;5043640;28;20060;-82
2021/12/11 10:53:54;;;;;;;6.45;5.85;;;;;;;7.46;93.86;98304.72;5043115;28;20045;-82
2021/12/11 10:56:22;;;;;;;9.50;8.00;;;;;;;7.35;93.10;98286.09;5046486;28;20025;-82
2021/12/11 10:58:54;;;;;;;6.93;4.68;;;;;;;7.57;92.96;98288.97;5065501;28;20033;-81
2021/12/11 11:01:36;;;;;;;7.38;6.20;;;;;;;7.69;92.42;98298.88;5032281;28;20053;-82
2021/12/11 11:04:09;;;;;;;7.47;5.40;;;;;;;7.45;90.76;98269.91;5065295;28;20025;-82
2021/12/11 11:06:36;;;;;;;8.30;5.30;;;;;;;7.64;90.64;98277.91;5047901;28;20059;-82
2021/12/11 11:09:04;;;;;;;6.53;5.65;;;;;;;7.98;90.13;98319.16;5061810;28;20060;-81
2021/12/11 11:11:32;;;;;;;11.85;9.50;;;;;;;7.80;89.01;98277.56;5035627;28;20053;-81
2021/12/11 11:14:00;;;;;;;5.50;4.93;;;;;;;7.91;88.83;98281.16;5012572;28;20029;-81
2021/12/11 11:16:26;;;;;;;2.88;2.33;;;;;;;7.95;82.26;98317.19;5043220;28;20051;-81
2021/12/11 11:18:52;;;;;;;3.70;2.78;;;;;;;7.86;82.98;98306.47;5026712;28;20112;-81
2021/12/11 11:21:25;;;;;;;4.60;3.33;;;;;;;7.65;83.00;98295.31;5029325;28;20045;-81
2021/12/11 11:23:54;;;;;;;4.00;3.53;;;;;;;7.72;83.66;98296.13;5032569;28;20029;-82
2021/12/11 11:26:24;;;;;;;3.53;3.22;;;;;;;7.68;81.74;98289.78;5015048;28;20041;-81
2021/12/11 11:28:51;;;;;;;3.67;3.22;;;;;;;7.57;83.00;98277.88;5030645;28;20028;-81
2021/12/11 11:31:26;;;;;;;11.55;10.05;;;;;;;7.87;84.64;98306.06;5030091;28;20033;-82
2021/12/11 11:33:53;;;;;;;4.45;3.95;;;;;;;7.60;83.32;98274.31;5028244;28;20071;-82
2021/12/11 11:36:22;;;;;;;3.47;3.08;;;;;;;7.59;83.62;98267.22;5028099;28;20038;-82
2021/12/11 11:38:52;;;;;;;3.70;3.40;;;;;;;7.78;82.66;98289.03;5025077;28;20108;-81
2021/12/11 11:41:23;;;;;;;3.40;3.10;;;;;;;7.88;82.17;98296.59;5023401;28;20036;-81
2021/12/11 11:43:50;;;;;;;7.22;5.15;;;;;;;7.66;81.37;98269.22;5041396;28;20116;-81
2021/12/11 11:46:17;;;;;;;5.85;4.53;;;;;;;7.69;81.18;98269.22;5024625;28;20037;-81
2021/12/11 11:48:47;;;;;;;9.50;8.50;;;;;;;7.64;82.75;98277.91;5023251;28;20025;-81
2021/12/11 11:51:18;;;;;;;7.00;5.90;;;;;;;7.74;83.31;98260.53;5007919;28;20402;-82
2021/12/11 11:53:45;;;;;;;6.93;6.22;;;;;;;7.89;83.13;98264.16;5024279;28;20496;-81
2021/12/11 11:56:17;;;;;;;7.25;6.55;;;;;;;8.11;82.37;98284.38;5024816;28;20037;-82
2021/12/11 11:58:44;;;;;;;4.70;3.92;;;;;;;8.36;79.02;98306.59;5024944;28;20049;-81
2021/12/11 12:01:16;;;;;;;7.38;4.63;;;;;;;8.16;79.07;98292.31;5024702;28;20368;-81
2021/12/11 12:03:42;;;;;;;5.50;5.10;;;;;;;8.23;79.28;98289.56;5012674;28;20033;-82
2021/12/11 12:06:11;;;;;;;6.15;5.55;;;;;;;8.05;79.62;98266.56;5046980;28;20088;-81
2021/12/11 12:08:42;;;;;;;7.60;6.20;;;;;;;8.18;79.54;98281.63;5031095;28;20489;-81
2021/12/11 12:11:09;;;;;;;8.85;7.80;;;;;;;8.26;78.76;98302.63;5048844;28;20022;-82
2021/12/11 12:13:35;;;;;;;8.18;6.15;;;;;;;8.19;76.96;98294.28;5033100;28;20026;-83
2021/12/11 12:16:06;;;;;;;7.82;6.85;;;;;;;8.23;77.78;98272.94;5047905;28;20108;-82
2021/12/11 12:18:32;;;;;;;5.18;4.30;;;;;;;8.42;74.29;98276.56;5028649;28;20034;-82
2021/12/11 12:20:59;;;;;;;5.95;5.25;;;;;;;8.50;74.76;98269.81;5028001;28;20033;-82
2021/12/11 12:23:31;;;;;;;12.85;9.02;;;;;;;8.27;74.19;98262.66;5027027;28;20093;-82
2021/12/11 12:26:01;;;;;;;5.95;4.18;;;;;;;8.40;74.06;98274.94;5027969;28;20033;-82
2021/12/11 12:28:28;;;;;;;4.57;3.85;;;;;;;8.72;72.75;98314.97;5046194;28;20029;-83
2021/12/11 12:31:13;;;;;;;6.80;6.15;;;;;;;8.62;71.18;98294.38;5045460;28;20471;-82
2021/12/11 12:33:41;;;;;;;11.48;8.13;;;;;;;8.58;71.94;98285.28;5046281;28;20560;-83
2021/12/11 12:36:13;;;;;;;18.10;12.25;;;;;;;8.84;71.77;98301.53;5029566;28;20557;-83
2021/12/11 12:38:40;;;;;;;6.68;5.53;;;;;;;8.97;71.34;98290.00;5012285;28;20041;-83
2021/12/11 12:41:17;;;;;;;12.55;8.50;;;;;;;9.30;72.08;98292.31;5028730;28;20033;-83
2021/12/11 12:47:10;;;;;;;4.07;3.45;;;;;;;9.36;66.72;98314.91;5035127;28;20033;-84
2021/12/11 12:49:41;;;;;;;4.10;3.70;;;;;;;9.47;66.73;98326.00;5049667;28;20387;-84
2021/12/11 12:52:15;;;;;;;5.25;4.28;;;;;;;9.34;66.64;98326.41;5032118;28;20041;-84
2021/12/11 12:54:41;;;;;;;4.28;3.85;;;;;;;9.55;66.48;98322.00;5035718;28;20052;-83
2021/12/11 12:57:18;;;;;;;6.75;6.10;;;;;;;9.60;65.18;98311.28;5037954;28;20087;-84
2021/12/11 12:59:53;;;;;;;6.63;5.72;;;;;;;10.12;66.33;98341.22;5047921;28;20029;-83
2021/12/11 13:02:23;;;;;;;4.65;4.20;;;;;;;10.35;64.97;98355.44;5033327;28;20060;-84
2021/12/11 13:04:55;;;;;;;5.85;5.05;;;;;;;10.19;64.38;98352.31;5033625;28;20068;-83
2021/12/11 13:07:24;;;;;;;5.75;4.15;;;;;;;9.90;63.01;98338.53;5029272;28;20025;-84
2021/12/11 13:10:00;;;;;;;6.60;5.20;;;;;;;9.81;63.25;98332.63;5029690;28;20030;-84
2021/12/11 13:12:43;;;;;;;4.85;4.03;;;;;;;10.01;63.31;98352.38;5028383;28;20046;-83